»·PEaware :: ASA877 KSFO-KSNA

ASA877 :: KSFO-KSNA

FLIGHT INFORMATION

Flight Status: Arrived
Operator:
Alaska Airlines
More flights by this operator :: More flights under this callsign
Pilot: Anthony T. (15846)
Aircraft: BOEING 737-800
(B738)
More flights by this aircraft type
Origin: KSFO San Francisco Intl
United States
Destination: KSNA John Wayne-Orange Co
United States
More flights between these airports :: More routes between these airports
Route: +OFFSH1 MCKEY TILLT TILLT2
File this flight plan on PilotEdge
Remarks:
Altitude:
(Current/Filed)
27,000ft
Speed:
(Current/Filed)
315kts
Departed: 07-May-18 09:35 PM
Arrived: 07-May-18 10:37 PM
Distance/Time
Traveled:
323nm/1:02
Distance/Time
To Go:
Arrived

Flight Plot

Page will automatically refresh every two minutes.

Flight plan parsing failed; only flown route is shown


Map Options




Map Legend


Flown Route
Filed Route
Departure Airport
Arrival Airport
Navaid (VOR, NDB)
Fix

Horizontal Profiles

Position Reports

Time Latitude Longitude Heading Altitude Ground
Speed
07-May-18 21:25 37.611683 -122.385971 34 31ft 0kts
07-May-18 21:26 37.611683 -122.385971 34 31ft 0kts
07-May-18 21:27 37.611683 -122.385970 34 31ft 0kts
07-May-18 21:28 37.611683 -122.385970 34 31ft 0kts
07-May-18 21:29 37.611683 -122.385970 34 31ft 0kts
07-May-18 21:30 37.611490 -122.386713 122 31ft 0kts
07-May-18 21:31 37.611490 -122.386713 122 31ft 0kts
07-May-18 21:32 37.611490 -122.386713 122 31ft 0kts
07-May-18 21:33 37.610158 -122.384237 177 31ft 9kts
07-May-18 21:34 37.608729 -122.383130 108 31ft 13kts
07-May-18 21:35 37.641798 -122.362945 358 1546ft 218kts
07-May-18 21:36 37.706470 -122.374507 314 5542ft 264kts
07-May-18 21:37 37.698212 -122.451392 212 9271ft 278kts
07-May-18 21:38 37.645075 -122.519509 234 12754ft 286kts
07-May-18 21:39 37.602021 -122.607356 243 15940ft 304kts
07-May-18 21:40 37.541229 -122.672552 182 19070ft 322kts
07-May-18 21:41 37.452990 -122.658140 173 19196ft 322kts
07-May-18 21:42 37.356992 -122.637533 172 19771ft 374kts
07-May-18 21:43 37.252380 -122.614299 172 22479ft 390kts
07-May-18 21:44 37.143744 -122.590229 173 25192ft 407kts
07-May-18 21:45 37.029583 -122.565082 173 27164ft 433kts
07-May-18 21:46 36.910350 -122.538814 172 27174ft 437kts
07-May-18 21:47 36.791023 -122.512600 172 27162ft 437kts
07-May-18 21:48 36.671330 -122.486408 172 27151ft 438kts
07-May-18 21:49 36.551848 -122.460342 172 27149ft 438kts
07-May-18 21:50 36.433830 -122.426325 151 27147ft 444kts
07-May-18 21:51 36.344615 -122.317712 132 27158ft 467kts
07-May-18 21:52 36.254377 -122.186953 131 27145ft 515kts
07-May-18 21:53 36.161583 -122.052234 131 27146ft 514kts
07-May-18 21:54 36.069064 -121.918441 131 27147ft 514kts
07-May-18 21:55 35.975988 -121.784379 131 27147ft 514kts
07-May-18 21:56 35.882932 -121.650879 131 27144ft 514kts
07-May-18 21:57 35.789506 -121.517371 131 27104ft 516kts
07-May-18 21:58 35.695627 -121.383738 131 27076ft 517kts
07-May-18 21:59 35.601856 -121.250780 132 27071ft 517kts
07-May-18 22:00 35.507431 -121.117500 131 27072ft 519kts
07-May-18 22:01 35.425289 -120.973889 134 27075ft 517kts
07-May-18 22:02 35.319023 -120.855455 138 27074ft 516kts
07-May-18 22:03 35.211651 -120.739763 138 27074ft 514kts
07-May-18 22:04 35.108547 -120.629139 138 27081ft 508kts
07-May-18 22:05 34.997881 -120.523421 146 27092ft 507kts
07-May-18 22:06 34.881247 -120.428578 148 27093ft 503kts
07-May-18 22:07 34.764785 -120.334682 148 27092ft 503kts
07-May-18 22:08 34.648354 -120.241149 148 27090ft 503kts
07-May-18 22:09 34.532171 -120.148261 148 26203ft 497kts
07-May-18 22:10 34.417810 -120.057134 148 26066ft 495kts
07-May-18 22:11 34.302759 -119.965764 148 25975ft 495kts
07-May-18 22:12 34.187739 -119.874726 148 25973ft 495kts
07-May-18 22:13 34.076591 -119.776214 130 25976ft 506kts
07-May-18 22:14 33.999924 -119.635268 121 24731ft 497kts
07-May-18 22:15 33.929696 -119.495829 121 22439ft 479kts
07-May-18 22:16 33.862739 -119.361235 120 21001ft 466kts
07-May-18 22:17 33.796367 -119.226680 120 19739ft 457kts
07-May-18 22:18 33.733552 -119.099780 120 17223ft 435kts
07-May-18 22:19 33.672963 -118.977775 120 14711ft 417kts
07-May-18 22:20 33.614934 -118.861334 120 12197ft 392kts
07-May-18 22:21 33.568889 -118.747081 103 11026ft 384kts
07-May-18 22:22 33.547749 -118.625575 100 9171ft 355kts
07-May-18 22:23 33.529100 -118.511261 100 9025ft 351kts
07-May-18 22:24 33.520092 -118.394977 91 8235ft 349kts
07-May-18 22:25 33.534235 -118.285646 70 6241ft 334kts
07-May-18 22:26 33.566063 -118.184740 61 5008ft 327kts
07-May-18 22:27 33.614835 -118.093520 56 4993ft 308kts
07-May-18 22:28 33.657885 -118.015786 56 5001ft 273kts
07-May-18 22:29 33.703275 -117.945462 31 5010ft 274kts
07-May-18 22:30 33.761146 -117.905761 28 4309ft 218kts
07-May-18 22:31 33.809158 -117.875096 27 3309ft 193kts
07-May-18 22:32 33.828781 -117.829368 115 2540ft 166kts
07-May-18 22:33 33.804823 -117.791393 191 2192ft 145kts
07-May-18 22:34 33.768613 -117.809842 208 1967ft 146kts
07-May-18 22:35 33.733410 -117.832236 207 1227ft 142kts
07-May-18 22:36 33.699051 -117.854148 206 517ft 139kts
07-May-18 22:37 33.671701 -117.871372 208 64ft 23kts

Navigation Log

Ident Type
Flight plan parsing failed, navigation log unavailable